LIPR/RMI METAR and TAF weather

Enter ICAO airport designator
Station Type Date Time Source
LIPR METAR 2018/12/15 21:20 UTC NOAA

LIPR 152120Z 25005KT 9999 FEW050 01/M03 Q1020


Station Type Date Time Source
LIPR Decoded METAR 2018/12/15 21:20 UTC NOAA

Rimini, Italy (LIPR) 44-02N 012-37E 13M
Dec 15, 2018 - 04:20 PM EST / 2018.12.15 2120 UTC
Wind: from the WSW (250 degrees) at 6 MPH (5 KT):0
Visibility: greater than 7 mile(s):0
Sky conditions: mostly clear
Temperature: 33 F (1 C)
Windchill: 26 F (-3 C):1
Dew Point: 26 F (-3 C)
Relative Humidity: 74%
Pressure (altimeter): 30.12 in. Hg (1020 hPa)
ob: LIPR 152120Z 25005KT 9999 FEW050 01/M03 Q1020
cycle: 21

Station Type Date Time Source
LIPR TAF 2016/08/23 03:00 UTC NOAA

TAF LIPR 230200Z 2303/2312 04007KT CAVOK
BECMG 2308/2310 02010KT


Example: see airport list